• Join FlightAware (Why Join?)
  • Login
  • US Flag 
07:17PM EDT


 

Airport Tracker/Info


-or-


 

Live Flight TrackerFlight Track Log ✈ N402B ✈ 08-Jul-2013 ✈ KTMA - KPDK

Flight Track Log - Related Links

Times and Time Zones

All times are in EDT time to prevent confusion due to time zone crossing. See the N402B flight status page for this flight to view local times or setup timezone preferences in your user account.

Time Position Orientation Groundspeed Altitude Reporting Facility
EDT Latitude Longitude Course Direction KTS MPH feet Rate Location/Type
09:40PM 31.4947 -83.5358 344° North 126 145 2,100  Level Jacksonville Center
09:40PM 31.5114 -83.5506 323° Northwest 137 158 2,600 720 Climbing Jacksonville Center
09:41PM 31.5467 -83.5703 335° Northwest 137 158 3,300 720 Climbing Jacksonville Center
09:42PM 31.5822 -83.5925 332° Northwest 137 158 4,100 660 Climbing Jacksonville Center
09:43PM 31.6175 -83.6219 325° Northwest 142 163 4,700 600 Climbing Jacksonville Center
09:44PM 31.6547 -83.6517 326° Northwest 147 169 5,300 600 Climbing Jacksonville Center
09:45PM 31.8643 -83.6213 344° North  Level FlightAware Approximate
09:45PM 31.6903 -83.6789 327° Northwest 147 169 5,900  Level Jacksonville Center
09:46PM 31.7275 -83.7058 328° Northwest 147 169 6,400 540 Climbing Jacksonville Center
09:47PM 31.7692 -83.7283 335° Northwest 153 176 7,000 540 Climbing Jacksonville Center
09:48PM 31.8108 -83.7483 338° Northwest 158 182 7,500 540 Climbing Jacksonville Center
09:49PM 31.8544 -83.7683 339° North 158 182 8,100 120 Climbing Jacksonville Center
09:52PM 31.9833 -83.8000 348° North 182 209 8,000 -60 Descending Atlanta TRACON
09:52PM 32.0167 -83.8000 360° North 181 208 8,000  Level Atlanta TRACON
09:53PM 32.0667 -83.8167 344° North 175 201 8,000  Level Atlanta TRACON
09:54PM 32.1167 -83.8333 344° North 179 206 8,100  Climbing Atlanta TRACON
09:56PM 32.1667 -83.8167 16° North 186 214 8,100  Level Atlanta TRACON
09:57PM 32.2167 -83.8167 360° North 187 215 8,100  Level Atlanta TRACON
09:57PM 32.2667 -83.8167 360° North 184 212 8,100  Level Atlanta TRACON
09:58PM 32.3167 -83.8167 360° North 187 215 8,100  Level Atlanta TRACON
09:59PM 32.3667 -83.8167 360° North 185 213 8,100  Level Atlanta TRACON
10:01PM 32.4333 -83.8000 12° North 180 207 8,100  Level Atlanta TRACON
10:02PM 32.4833 -83.8000 360° North 181 208 8,100  Level Atlanta TRACON
10:03PM 32.5333 -83.8000 360° North 180 207 8,100  Level Atlanta TRACON
10:04PM 32.5833 -83.8000 360° North 180 207 8,100  Level Atlanta TRACON
10:05PM 32.6333 -83.8000 360° North 185 213 8,100  Level Atlanta TRACON
10:06PM 32.6833 -83.8000 360° North 190 219 8,100  Level Atlanta TRACON
10:07PM 32.7333 -83.8000 360° North 190 219 8,100  Level Atlanta TRACON
10:08PM 32.8000 -83.8000 360° North 190 219 8,100  Level Atlanta TRACON
10:09PM 32.8500 -83.8000 360° North 187 215 8,100  Level Atlanta TRACON
10:10PM 32.9000 -83.8000 360° North 187 215 8,100 -180 Level Atlanta TRACON
10:11PM 32.9500 -83.8000 360° North 193 222 7,800 -300 Descending Atlanta TRACON
10:12PM 33.0000 -83.7833 16° North 198 228 7,600 -300 Descending Atlanta TRACON
10:13PM 33.0500 -83.7833 360° North 197 227 7,300 -300 Descending Atlanta TRACON
10:14PM 33.1167 -83.7833 360° North 202 232 7,000 -300 Descending Atlanta TRACON
10:15PM 33.1667 -83.7833 360° North 202 232 6,700 -300 Descending Atlanta TRACON
10:16PM 33.2167 -83.7833 360° North 199 229 6,400 -240 Descending Atlanta TRACON
10:17PM 33.2833 -83.7833 360° North 199 229 6,200 -240 Descending Atlanta TRACON
10:18PM 33.3333 -83.7833 360° North 194 223 6,000 -180 Descending Atlanta TRACON
10:19PM 33.3833 -83.7500 29° Northeast 192 221 5,900 -360 Descending Atlanta TRACON
10:20PM 33.4167 -83.7167 40° Northeast 200 230 5,400 -540 Descending Atlanta TRACON
10:21PM 33.4667 -83.6833 29° Northeast 205 236 4,900 -540 Descending Atlanta TRACON
10:22PM 33.5167 -83.6667 16° North 198 228 4,400 -420 Descending Atlanta TRACON
10:22PM 33.5667 -83.6667 360° North 197 227 4,200 -180 Descending Atlanta TRACON
10:24PM 33.6167 -83.6833 344° North 178 205 4,100 -60 Descending Atlanta TRACON
10:25PM 33.6667 -83.7000 344° North 175 201 4,100  Level Atlanta TRACON
10:26PM 33.7000 -83.7333 320° Northwest 170 196 4,100  Level Atlanta TRACON
10:27PM 33.7500 -83.7500 345° North 168 193 4,100 -60 Level Atlanta TRACON
10:28PM 33.8000 -83.7833 331° Northwest 174 200 4,000 -60 Descending Atlanta TRACON
10:29PM 33.8333 -83.8167 320° Northwest 178 205 4,000  Level Atlanta TRACON
10:30PM 33.8833 -83.8333 345° North 168 193 4,000  Level Atlanta TRACON
10:31PM 33.9167 -83.8667 320° Northwest 173 199 4,000  Level Atlanta TRACON
10:32PM 33.9167 -83.9167 270° West 159 183 4,000 -240 Level Atlanta TRACON
10:33PM 33.9333 -83.9667 292° West 176 203 3,600 -480 Descending Atlanta TRACON
10:34PM 33.9333 -84.0333 270° West 174 200 3,000 -300 Descending Atlanta TRACON
10:35PM 33.9333 -84.0833 270° West 157 181 3,000 -120 Level Atlanta TRACON
10:36PM 33.9167 -84.1333 248° West 158 182 2,800 -240 Descending Atlanta TRACON
10:37PM 33.9333 -84.1833 292° West 149 171 2,600 -180 Descending Atlanta TRACON
10:38PM 33.9333 -84.2333 270° West 124 143 2,500 -240 Descending Atlanta TRACON
10:39PM 33.9333 -84.2667 270° West 119 137 2,200 -360 Descending Atlanta TRACON
10:40PM 33.9167 -84.2833 220° Southwest 112 129 1,800 -420 Descending Atlanta TRACON
10:41PM 33.8756 -84.3020 268° West  Level Estimated
10:48PM 33.8756 -84.3020 268° West  Level Estimated
10:49PM 33.8756 -84.3020 268° West  Level Estimated